Time;durP1;ratioP1;P1;durP2;ratioP2;P2;SDS_P1;SDS_P2;PMS_P1;PMS_P2;Temp;Humidity;BMP_temperature;BMP_pressure;BME280_temperature;BME280_humidity;BME280_pressure;Samples;Min_cycle;Max_cycle;Signal;HPM_P1;HPM_P2
2023/05/21 00:03:29;;;;;;;21.97;11.93;;;;;;;16.61;100.00;101365.41;5019898;56;1144983;-76
2023/05/21 00:08:34;;;;;;;19.84;11.54;;;;;;;16.64;100.00;101372.70;5082806;56;1145316;-76
2023/05/21 00:13:40;;;;;;;22.27;11.60;;;;;;;16.67;100.00;101368.40;5110467;56;1145101;-75
2023/05/21 00:18:46;;;;;;;22.85;13.38;;;;;;;16.68;100.00;101364.75;5103364;56;1144921;-74
2023/05/21 00:23:55;;;;;;;14.97;11.40;;;;;;;16.70;100.00;101363.27;5103482;56;1145195;-78
2023/05/21 00:29:01;;;;;;;15.17;12.80;;;;;;;16.66;100.00;101356.51;5119134;56;1145041;-75
2023/05/21 00:34:06;;;;;;;21.50;12.43;;;;;;;16.62;100.00;101355.94;5085483;56;1145066;-77
2023/05/21 00:39:14;;;;;;;20.20;12.77;;;;;;;16.64;100.00;101354.00;5009962;57;1145107;-76
2023/05/21 00:44:20;;;;;;;20.53;12.67;;;;;;;16.67;100.00;101352.86;5029543;57;1144978;-77
2023/05/21 00:49:25;;;;;;;20.53;13.03;;;;;;;16.71;100.00;101348.94;5049939;57;1144909;-75
2023/05/21 00:54:32;;;;;;;21.63;14.13;;;;;;;16.73;100.00;101352.32;5074170;57;1145084;-76
2023/05/21 00:59:38;;;;;;;28.47;14.50;;;;;;;16.78;100.00;101358.10;5074515;57;1145124;-77
2023/05/21 01:04:44;;;;;;;18.00;13.72;;;;;;;16.76;100.00;101356.06;5107701;56;1145086;-76
2023/05/21 01:09:50;;;;;;;22.03;13.53;;;;;;;16.72;100.00;101352.81;5093022;56;1145019;-76
2023/05/21 01:14:56;;;;;;;19.77;13.13;;;;;;;16.71;100.00;101349.78;5076096;56;1145112;-78
2023/05/21 01:20:08;;;;;;;18.07;12.80;;;;;;;16.71;100.00;101349.78;5099980;56;1144949;-77
2023/05/21 01:25:13;;;;;;;15.53;13.33;;;;;;;16.72;100.00;101352.81;5093111;56;1145088;-76
2023/05/21 01:30:21;;;;;;;19.40;13.37;;;;;;;16.72;100.00;101349.30;5080460;56;1144963;-77
2023/05/21 01:35:41;;;;;;;21.10;12.84;;;;;;;16.64;100.00;101356.68;5077721;56;1145212;-77
2023/05/21 01:40:53;;;;;;;17.60;12.87;;;;;;;16.53;100.00;101350.91;5093166;56;1145074;-76
2023/05/21 01:46:00;;;;;;;17.00;12.73;;;;;;;16.46;100.00;101351.12;5093373;56;1145184;-77
2023/05/21 01:51:06;;;;;;;17.17;12.20;;;;;;;16.51;100.00;101352.02;5033005;56;1145103;-77
2023/05/21 01:56:14;;;;;;;19.37;12.68;;;;;;;16.58;100.00;101349.66;5009217;57;1145058;-76
2023/05/21 02:01:19;;;;;;;18.90;13.27;;;;;;;16.57;100.00;101348.81;5010163;56;1145000;-76
2023/05/21 02:06:25;;;;;;;16.73;14.57;;;;;;;16.52;100.00;101345.21;5053279;56;1145120;-78
2023/05/21 02:11:31;;;;;;;17.57;12.63;;;;;;;16.47;100.00;101344.80;5050796;56;1145080;-78
2023/05/21 02:16:37;;;;;;;22.48;13.20;;;;;;;16.41;100.00;101339.99;5113864;56;1145113;-75
2023/05/21 02:21:42;;;;;;;15.78;12.18;;;;;;;16.40;100.00;101344.13;5093901;56;1145024;-75
2023/05/21 02:26:49;;;;;;;27.17;12.97;;;;;;;16.29;100.00;101343.76;5075336;56;1145084;-75
2023/05/21 02:31:55;;;;;;;17.43;13.47;;;;;;;16.24;100.00;101335.30;5055841;55;1145105;-78
2023/05/21 02:37:00;;;;;;;18.97;13.03;;;;;;;16.19;100.00;101334.88;5117658;56;1145057;-78
2023/05/21 02:42:06;;;;;;;19.60;12.97;;;;;;;16.15;100.00;101332.97;5145372;56;1145170;-78
2023/05/21 02:47:12;;;;;;;21.73;13.23;;;;;;;16.10;100.00;101338.34;5110164;56;1145004;-75
2023/05/21 02:52:25;;;;;;;21.43;12.57;;;;;;;16.01;100.00;101336.00;5041192;56;1144942;-76
2023/05/21 02:57:27;;;;;;;15.50;11.83;;;;;;;15.91;100.00;101336.43;5120442;56;1145180;-77
2023/05/21 03:02:33;;;;;;;19.20;11.90;;;;;;;15.85;100.00;101330.31;5125330;56;1145135;-79
2023/05/21 03:07:38;;;;;;;16.07;12.30;;;;;;;15.80;100.00;101320.03;5125275;56;1145007;-78
2023/05/21 03:12:44;;;;;;;18.03;11.90;;;;;;;15.71;100.00;101333.33;5098277;56;1150057;-75
2023/05/21 03:17:52;;;;;;;26.10;10.77;;;;;;;15.63;100.00;101324.64;5145450;56;1145334;-78
2023/05/21 03:22:59;;;;;;;11.90;9.73;;;;;;;15.63;100.00;101324.64;5100164;56;1145181;-79
2023/05/21 03:28:05;;;;;;;11.63;9.57;;;;;;;15.64;100.00;101318.34;5017978;56;1142995;-76
2023/05/21 03:33:22;;;;;;;12.23;9.33;;;;;;;15.65;100.00;101317.84;5094662;56;1143020;-80
2023/05/21 03:38:28;;;;;;;17.07;10.53;;;;;;;15.58;100.00;101321.55;5107700;56;1142876;-76
2023/05/21 03:43:34;;;;;;;13.37;9.70;;;;;;;15.61;100.00;101327.08;5107610;56;1144885;-80
2023/05/21 03:48:40;;;;;;;13.40;9.57;;;;;;;15.60;100.00;101315.56;5067471;56;1143005;-77
2023/05/21 03:53:47;;;;;;;12.63;8.75;;;;;;;15.63;100.00;101313.12;5021492;57;1143058;-77
2023/05/21 03:58:53;;;;;;;18.63;9.47;;;;;;;15.65;100.00;101315.18;4893969;58;1143168;-80
2023/05/21 04:03:58;;;;;;;15.73;9.23;;;;;;;15.69;100.00;101316.13;4970920;57;1143193;-76
2023/05/21 04:09:04;;;;;;;15.43;8.77;;;;;;;15.76;100.00;101319.09;4983019;57;1143100;-79
2023/05/21 04:14:10;;;;;;;14.20;8.63;;;;;;;15.77;100.00;101314.11;4941202;57;1142969;-80
2023/05/21 04:19:16;;;;;;;13.17;8.37;;;;;;;15.79;100.00;101311.67;4941114;57;1142882;-78
2023/05/21 04:24:21;;;;;;;11.60;9.43;;;;;;;15.86;100.00;101315.16;4960728;58;1142765;-77
2023/05/21 04:29:29;;;;;;;17.23;9.23;;;;;;;15.92;100.00;101310.59;4956297;57;1143035;-80
2023/05/21 04:34:35;;;;;;;16.80;9.50;;;;;;;16.00;100.00;101314.30;5090495;56;1143105;-77
2023/05/21 04:39:40;;;;;;;13.15;8.30;;;;;;;16.00;100.00;101314.30;5065379;56;1143091;-78
2023/05/21 04:44:47;;;;;;;13.03;9.73;;;;;;;16.06;100.00;101308.89;5050423;57;1142982;-78
2023/05/21 04:49:53;;;;;;;14.57;9.17;;;;;;;16.12;100.00;101313.70;5030889;56;1142916;-78
2023/05/21 04:54:59;;;;;;;14.73;8.90;;;;;;;16.16;100.00;101311.97;4908587;58;1142874;-75
2023/05/21 05:00:07;;;;;;;22.13;9.60;;;;;;;16.23;100.00;101314.08;5040907;56;1142929;-77
2023/05/21 05:05:14;;;;;;;10.83;9.27;;;;;;;16.32;100.00;101318.13;4947921;57;1143026;-76
2023/05/21 05:10:20;;;;;;;11.83;8.33;;;;;;;16.42;100.00;101317.66;4948133;58;1143392;-77
2023/05/21 05:15:26;;;;;;;12.83;7.80;;;;;;;16.48;100.00;101311.77;5041740;56;1143290;-79
2023/05/21 05:20:32;;;;;;;11.03;8.13;;;;;;;16.61;100.00;101314.67;4921193;58;1142903;-78
2023/05/21 05:25:38;;;;;;;20.47;7.47;;;;;;;16.76;100.00;101324.84;4945087;58;1142935;-75
2023/05/21 05:30:44;;;;;;;12.40;7.53;;;;;;;16.92;100.00;101330.12;5031300;56;1142919;-73
2023/05/21 05:35:51;;;;;;;8.73;6.80;;;;;;;17.04;100.00;101328.50;5049790;56;1142860;-76
2023/05/21 05:40:57;;;;;;;14.43;8.20;;;;;;;17.24;100.00;101326.67;5085957;56;1141051;-78
2023/05/21 05:46:03;;;;;;;10.93;6.67;;;;;;;17.44;100.00;101328.31;5101678;56;1143055;-80
2023/05/21 05:51:08;;;;;;;8.17;6.63;;;;;;;17.63;100.00;101327.44;5125354;56;1143012;-75
2023/05/21 05:56:15;;;;;;;10.90;6.17;;;;;;;17.81;99.42;101316.86;5108106;56;1140920;-76
2023/05/21 06:01:23;;;;;;;8.77;6.83;;;;;;;18.03;97.04;101317.80;5087517;56;1140862;-78
2023/05/21 06:06:29;;;;;;;8.13;6.47;;;;;;;18.42;93.65;101317.12;5120196;56;1138802;-77
2023/05/21 06:11:35;;;;;;;10.00;5.80;;;;;;;18.42;93.65;101317.12;5098195;56;1138906;-76
2023/05/21 06:16:41;;;;;;;11.10;5.80;;;;;;;18.71;92.37;101321.47;5089334;56;1141043;-75
2023/05/21 06:21:47;;;;;;;6.33;5.20;;;;;;;18.71;92.37;101321.47;5128168;56;1140879;-77
2023/05/21 06:26:52;;;;;;;11.08;5.40;;;;;;;18.83;89.38;101321.09;5061412;56;1138864;-79
2023/05/21 06:31:58;;;;;;;7.43;5.60;;;;;;;18.96;89.86;101327.41;5063578;56;1140791;-76
2023/05/21 06:37:04;;;;;;;10.63;5.65;;;;;;;19.12;84.76;101331.57;5127912;56;1138803;-76
2023/05/21 06:42:10;;;;;;;13.40;6.35;;;;;;;19.28;84.37;101326.34;5058561;56;1141036;-76
2023/05/21 06:47:23;;;;;;;15.00;8.43;;;;;;;19.39;82.37;101325.77;5038006;55;1141283;-74
2023/05/21 06:52:30;;;;;;;30.55;9.65;;;;;;;19.53;82.15;101322.55;5023577;56;1140808;-78
2023/05/21 06:57:38;;;;;;;12.20;5.22;;;;;;;19.73;77.85;101328.52;4978750;57;1140801;-75
2023/05/21 07:02:43;;;;;;;6.22;5.25;;;;;;;19.91;78.64;101321.25;4978506;57;1140765;-76
2023/05/21 07:07:49;;;;;;;7.00;4.87;;;;;;;20.14;81.11;101322.38;5010747;57;1138977;-75
2023/05/21 07:12:55;;;;;;;5.95;5.00;;;;;;;20.33;78.27;101319.91;5080204;57;1138739;-79
2023/05/21 07:18:01;;;;;;;8.40;4.83;;;;;;;20.47;74.37;101316.62;5061513;56;1138850;-75
2023/05/21 07:23:07;;;;;;;7.87;4.42;;;;;;;20.61;77.24;101316.02;5072926;56;1138877;-78
2023/05/21 07:28:12;;;;;;;17.15;5.00;;;;;;;20.80;74.52;101312.16;5094635;57;1138784;-78
2023/05/21 07:33:19;;;;;;;7.54;4.76;;;;;;;21.08;75.73;101317.56;5025969;57;1140711;-78
2023/05/21 07:38:26;;;;;;;4.40;3.80;;;;;;;21.35;74.06;101312.89;5010140;57;1138666;-77
2023/05/21 07:43:32;;;;;;;9.73;4.70;;;;;;;21.53;71.92;101317.59;5057922;56;1139231;-79
2023/05/21 07:48:38;;;;;;;11.55;4.58;;;;;;;21.73;68.65;101313.48;5081863;56;1138920;-76
2023/05/21 07:53:44;;;;;;;6.40;3.97;;;;;;;21.86;69.20;101315.63;5102064;56;1140936;-75
2023/05/21 07:58:50;;;;;;;14.25;4.15;;;;;;;21.98;67.06;101306.19;5123313;56;1138787;-78
2023/05/21 08:03:59;;;;;;;11.12;4.55;;;;;;;22.08;66.85;101307.35;5102980;56;1140830;-75
2023/05/21 08:09:05;;;;;;;12.28;4.33;;;;;;;22.27;67.67;101307.45;5098626;56;1140869;-74
2023/05/21 08:14:10;;;;;;;4.42;3.75;;;;;;;22.50;67.84;101308.82;5123719;56;1141090;-76
2023/05/21 08:19:16;;;;;;;5.60;3.40;;;;;;;22.74;62.39;101310.88;5089593;56;1138791;-76
2023/05/21 08:24:22;;;;;;;3.62;3.08;;;;;;;22.86;60.04;101307.28;5087604;56;1151531;-76
2023/05/21 08:29:29;;;;;;;14.03;4.20;;;;;;;22.99;62.94;101299.41;5038191;57;1239070;-79
2023/05/21 08:34:36;;;;;;;7.08;3.20;;;;;;;23.15;60.21;101300.63;5053517;56;1140833;-75
2023/05/21 08:39:43;;;;;;;5.47;3.43;;;;;;;23.33;61.07;101306.22;5101150;56;1138899;-74
2023/05/21 08:44:52;;;;;;;7.60;2.80;;;;;;;23.46;60.51;101296.46;5103915;56;1138874;-76
2023/05/21 08:49:59;;;;;;;3.65;2.80;;;;;;;23.63;58.05;101297.16;5120727;56;1138796;-75
2023/05/21 08:55:07;;;;;;;5.25;2.90;;;;;;;23.70;54.60;101295.38;5002923;56;1138871;-74
2023/05/21 09:00:14;;;;;;;4.95;3.00;;;;;;;23.84;54.28;101295.05;5019694;57;1138846;-77
2023/05/21 09:05:21;;;;;;;7.83;3.52;;;;;;;23.91;54.40;101294.64;5045028;57;1138770;-77
2023/05/21 09:10:31;;;;;;;4.20;2.70;;;;;;;23.99;54.79;101293.70;5089211;56;1138993;-76
2023/05/21 09:15:37;;;;;;;3.85;2.05;;;;;;;24.09;51.47;101295.10;5026357;56;1138703;-77
2023/05/21 09:20:44;;;;;;;6.68;2.46;;;;;;;24.10;49.84;101295.43;5066152;56;1139342;-76
2023/05/21 09:25:51;;;;;;;12.88;2.80;;;;;;;24.23;50.32;101298.84;5041102;56;1138853;-75
2023/05/21 09:31:03;;;;;;;10.50;2.30;;;;;;;24.33;47.84;101299.37;5041526;56;1141266;-73
2023/05/21 09:36:09;;;;;;;10.95;2.62;;;;;;;24.43;50.12;101285.56;5094738;56;1140771;-74
2023/05/21 09:41:15;;;;;;;2.62;2.40;;;;;;;24.54;48.86;101292.66;5076831;56;1140960;-74
2023/05/21 09:46:25;;;;;;;6.20;2.55;;;;;;;24.62;48.34;101294.39;5040048;55;1230106;-77
2023/05/21 09:51:31;;;;;;;7.12;3.00;;;;;;;24.67;49.04;101295.17;5085825;56;1247705;-73
2023/05/21 09:56:37;;;;;;;6.28;3.02;;;;;;;24.81;47.42;101294.27;5104510;56;1243722;-79
2023/05/21 10:01:44;;;;;;;6.15;2.85;;;;;;;24.84;46.04;101289.32;5111858;56;1244277;-80
2023/05/21 10:06:51;;;;;;;8.75;3.05;;;;;;;24.80;46.73;101289.38;5085017;56;1258627;-74
2023/05/21 10:11:58;;;;;;;4.00;2.90;;;;;;;24.77;45.32;101293.81;4938690;57;1236496;-78
2023/05/21 10:17:06;;;;;;;6.08;2.47;;;;;;;24.72;47.54;101270.58;4872173;59;1138641;-77
2023/05/21 10:22:13;;;;;;;2.70;2.50;;;;;;;24.82;48.14;101276.50;4905940;58;1138886;-78
2023/05/21 10:27:21;;;;;;;5.20;3.27;;;;;;;24.96;48.36;101277.48;4957997;58;1138799;-73
2023/05/21 10:32:28;;;;;;;7.00;2.90;;;;;;;25.16;50.03;101266.31;4894212;58;1139277;-77
2023/05/21 10:37:34;;;;;;;4.47;2.92;;;;;;;25.21;48.54;101262.48;5026934;57;1138801;-76
2023/05/21 10:43:08;;;;;;;5.20;2.50;;;;;;;25.27;47.93;101255.45;5081984;56;1255357;-73
2023/05/21 10:48:26;;;;;;;10.78;2.70;;;;;;;25.45;47.41;101246.31;5081589;56;1138923;-73
2023/05/21 10:54:14;;;;;;;7.47;2.90;;;;;;;25.62;49.24;101244.68;5033938;56;1140858;-76
2023/05/21 10:59:46;;;;;;;11.73;2.77;;;;;;;25.71;45.29;101242.11;5082429;56;1138658;-78
2023/05/21 11:05:00;;;;;;;3.70;2.33;;;;;;;25.72;48.63;101228.88;5033180;56;1140805;-78
2023/05/21 11:10:39;;;;;;;7.00;2.75;;;;;;;25.80;47.45;101226.86;5005467;56;1138864;-76
2023/05/21 11:16:09;;;;;;;9.23;3.00;;;;;;;25.87;46.45;101229.58;5048657;56;1138932;-76
2023/05/21 11:21:15;;;;;;;7.50;2.50;;;;;;;26.00;46.15;101235.56;5042835;56;1138776;-73
2023/05/21 11:26:24;;;;;;;4.90;2.52;;;;;;;25.99;46.28;101216.27;5029760;56;1138841;-77
2023/05/21 11:31:37;;;;;;;8.05;3.12;;;;;;;26.18;44.38;101217.70;5019755;57;1138975;-76
2023/05/21 11:36:42;;;;;;;2.33;2.13;;;;;;;26.18;44.73;101219.58;5020417;57;1138775;-75
2023/05/21 11:42:03;;;;;;;3.42;2.85;;;;;;;26.39;44.15;101225.41;5039689;57;1138824;-77
2023/05/21 11:47:13;;;;;;;6.55;3.25;;;;;;;26.50;43.18;101209.87;5029567;57;1138726;-76
2023/05/21 11:52:19;;;;;;;10.90;2.92;;;;;;;26.59;43.12;101223.03;4991528;56;1138892;-74
2023/05/21 11:57:38;;;;;;;8.45;2.62;;;;;;;26.67;42.55;101208.44;5003608;57;1141023;-76
2023/05/21 12:02:35;;;;;;;4.30;2.67;;;;;;;26.77;42.17;101211.56;5090445;56;1138845;-74
2023/05/21 12:07:41;;;;;;;6.95;2.90;;;;;;;26.85;41.13;101205.11;5091889;56;1138920;-76
2023/05/21 12:12:47;;;;;;;4.92;2.60;;;;;;;26.89;40.56;101206.34;5091878;56;1138852;-74
2023/05/21 12:17:52;;;;;;;4.25;3.37;;;;;;;26.87;39.56;101195.72;5112133;56;1138840;-75
2023/05/21 12:22:58;;;;;;;3.70;2.72;;;;;;;26.90;38.50;101210.73;5091824;56;1139009;-74
2023/05/21 12:28:04;;;;;;;5.97;2.65;;;;;;;26.93;41.05;101207.60;5091565;56;1138738;-74
2023/05/21 12:33:10;;;;;;;9.60;2.35;;;;;;;26.94;39.53;101203.36;5111533;56;1138771;-75
2023/05/21 12:38:16;;;;;;;3.05;2.65;;;;;;;26.88;38.82;101204.18;5091126;56;1138851;-75
2023/05/21 12:43:22;;;;;;;5.42;2.85;;;;;;;26.83;38.95;101202.60;5090123;56;1138818;-74
2023/05/21 12:48:28;;;;;;;4.28;2.40;;;;;;;26.89;40.44;101201.75;5074159;56;1138819;-76
2023/05/21 12:53:38;;;;;;;7.08;2.35;;;;;;;26.88;39.54;101205.53;5069127;56;1138777;-73
2023/05/21 12:58:47;;;;;;;2.60;2.40;;;;;;;26.90;39.38;101199.87;5039816;56;1138835;-74
2023/05/21 13:03:52;;;;;;;2.47;2.35;;;;;;;26.83;39.58;101195.81;5092011;56;1138822;-75
2023/05/21 13:08:58;;;;;;;3.70;2.72;;;;;;;26.97;38.89;101193.96;5111791;56;1138866;-72
2023/05/21 13:14:03;;;;;;;6.12;2.42;;;;;;;26.97;38.89;101193.96;5091438;56;1138929;-75
2023/05/21 13:19:09;;;;;;;7.95;2.42;;;;;;;27.09;38.13;101174.62;5091521;56;1138927;-76
2023/05/21 13:24:15;;;;;;;2.55;2.27;;;;;;;27.11;38.66;101182.03;5111448;56;1138707;-76
2023/05/21 13:29:20;;;;;;;5.70;2.62;;;;;;;27.15;40.10;101175.67;5091401;56;1138741;-73
2023/05/21 13:34:26;;;;;;;6.33;1.87;;;;;;;27.11;37.63;101167.10;5090466;56;1138819;-75
2023/05/21 13:39:32;;;;;;;8.33;2.12;;;;;;;27.02;36.94;101164.31;5098192;56;1138820;-74
2023/05/21 13:44:38;;;;;;;11.75;2.30;;;;;;;26.98;38.47;101162.22;5091106;56;1138869;-72
2023/05/21 13:49:44;;;;;;;6.87;2.50;;;;;;;27.03;38.01;101167.86;5045021;56;1140895;-74
2023/05/21 13:54:49;;;;;;;5.75;1.72;;;;;;;27.03;38.29;101167.86;5116214;56;1138730;-75
2023/05/21 13:59:55;;;;;;;4.17;2.30;;;;;;;26.92;36.76;101163.33;5107403;56;1138917;-75
2023/05/21 14:05:00;;;;;;;7.58;2.05;;;;;;;26.86;37.07;101170.97;5107210;56;1138661;-76
2023/05/21 14:10:07;;;;;;;16.00;2.05;;;;;;;26.83;36.22;101156.45;5127254;56;1138723;-75
2023/05/21 14:15:12;;;;;;;11.57;1.77;;;;;;;26.72;35.36;101153.55;5106970;56;1140788;-74
2023/05/21 14:20:18;;;;;;;5.87;2.10;;;;;;;26.69;38.15;101155.32;5107120;56;1141056;-76
2023/05/21 14:25:24;;;;;;;8.98;2.08;;;;;;;26.67;35.50;101160.12;5127355;56;1138641;-73
2023/05/21 14:30:29;;;;;;;3.60;1.92;;;;;;;26.57;34.66;101153.77;5107260;56;1138716;-74
2023/05/21 14:35:35;;;;;;;9.73;1.85;;;;;;;26.49;33.61;101149.36;5107003;56;1138811;-73
2023/05/21 14:40:41;;;;;;;2.98;1.77;;;;;;;26.42;33.26;101152.61;5107118;56;1151012;-75
2023/05/21 14:45:46;;;;;;;5.12;1.90;;;;;;;26.30;33.31;101150.69;5127205;56;1138950;-75
2023/05/21 14:50:52;;;;;;;4.27;1.90;;;;;;;26.36;35.26;101148.52;5107028;56;1138908;-74
2023/05/21 14:55:58;;;;;;;4.05;1.75;;;;;;;26.34;34.99;101150.59;5101164;56;1138922;-75
2023/05/21 15:01:04;;;;;;;4.50;2.00;;;;;;;26.32;35.98;101145.37;5035804;56;1138729;-74
2023/05/21 15:06:10;;;;;;;14.70;2.35;;;;;;;26.35;34.82;101145.48;5006586;57;1138881;-74
2023/05/21 15:11:15;;;;;;;4.42;3.17;;;;;;;26.36;34.40;101149.88;5006441;57;1140829;-73
2023/05/21 15:16:21;;;;;;;12.65;7.20;;;;;;;26.33;34.22;101148.92;5026414;57;1138882;-77
2023/05/21 15:21:26;;;;;;;5.97;2.80;;;;;;;26.37;35.38;101147.48;5006492;57;1140833;-74
2023/05/21 15:26:32;;;;;;;8.03;2.12;;;;;;;26.31;34.70;101138.80;5006533;57;1138724;-76
2023/05/21 15:31:38;;;;;;;6.16;1.96;;;;;;;26.26;35.33;101142.95;5084661;56;1139009;-75
2023/05/21 15:36:43;;;;;;;5.15;3.83;;;;;;;26.33;36.57;101140.27;5093841;56;1138663;-75
2023/05/21 15:41:49;;;;;;;6.30;2.10;;;;;;;26.46;36.96;101136.73;5093840;56;1138850;-75
2023/05/21 15:46:55;;;;;;;2.52;1.50;;;;;;;26.50;34.84;101131.20;5082036;56;1138893;-76
2023/05/21 15:52:01;;;;;;;9.50;2.27;;;;;;;26.43;34.82;101127.67;5027951;57;1138770;-77
2023/05/21 15:57:07;;;;;;;5.15;1.90;;;;;;;26.40;34.99;101125.37;5016330;56;1138813;-76
2023/05/21 16:02:12;;;;;;;2.87;1.75;;;;;;;26.38;36.36;101120.67;5035425;56;1138766;-72
2023/05/21 16:07:19;;;;;;;1.92;1.82;;;;;;;26.37;36.53;101120.36;5056409;57;1138783;-77
2023/05/21 16:12:25;;;;;;;12.80;2.83;;;;;;;26.41;36.00;101116.19;5043744;57;1138765;-77
2023/05/21 16:17:31;;;;;;;4.25;2.20;;;;;;;26.41;36.67;101113.48;5043353;57;1140966;-77
2023/05/21 16:22:36;;;;;;;9.58;1.82;;;;;;;26.25;35.08;101118.23;5063261;57;1138749;-78
2023/05/21 16:27:42;;;;;;;6.97;2.50;;;;;;;26.11;35.58;101119.78;5033001;57;1138996;-77
2023/05/21 16:32:47;;;;;;;5.30;1.83;;;;;;;25.96;35.74;101115.06;5031098;57;1138751;-75
2023/05/21 16:37:53;;;;;;;9.00;2.20;;;;;;;25.89;36.22;101119.09;5050952;57;1138740;-74
2023/05/21 16:42:59;;;;;;;8.48;2.52;;;;;;;25.79;35.86;101111.88;5031274;57;1138992;-75
2023/05/21 16:48:04;;;;;;;2.65;2.08;;;;;;;25.71;36.38;101108.83;5035776;57;1139037;-75
2023/05/21 16:53:10;;;;;;;3.72;3.08;;;;;;;25.63;36.20;101104.95;5063715;57;1138720;-74
2023/05/21 16:58:16;;;;;;;4.87;2.40;;;;;;;25.59;36.83;101106.36;5011314;57;1138887;-74
2023/05/21 17:03:21;;;;;;;8.90;2.67;;;;;;;25.42;36.13;101106.39;4999490;57;1139117;-79
2023/05/21 17:08:27;;;;;;;6.97;2.15;;;;;;;25.42;36.13;101106.39;5038271;57;1138838;-79
2023/05/21 17:13:33;;;;;;;6.50;2.22;;;;;;;25.33;36.51;101108.45;5019071;57;1138693;-76
2023/05/21 17:18:38;;;;;;;2.87;2.15;;;;;;;25.23;37.01;101102.03;5018977;57;1138723;-76
2023/05/21 17:23:44;;;;;;;9.80;2.05;;;;;;;25.05;35.84;101094.14;5084736;56;1258525;-75
2023/05/21 17:28:49;;;;;;;2.54;1.86;;;;;;;25.02;35.52;101109.42;5128573;56;1138869;-77
2023/05/21 17:33:55;;;;;;;2.60;2.40;;;;;;;24.85;35.99;101104.29;5108550;56;1138980;-75
2023/05/21 17:39:00;;;;;;;5.00;2.03;;;;;;;24.71;35.12;101110.64;5107177;56;1138823;-77
2023/05/21 17:44:06;;;;;;;11.75;2.45;;;;;;;24.55;35.38;101106.88;5127386;56;1138797;-75
2023/05/21 17:49:11;;;;;;;4.62;2.42;;;;;;;24.45;35.58;101101.78;5107033;56;1141213;-75
2023/05/21 17:54:18;;;;;;;2.62;2.42;;;;;;;24.29;35.79;101100.70;5107133;56;1138753;-78
2023/05/21 17:59:24;;;;;;;4.30;2.40;;;;;;;24.15;36.61;101106.98;5126944;56;1138841;-74
2023/05/21 18:04:29;;;;;;;6.67;2.85;;;;;;;24.06;36.84;101106.81;5070049;56;1138991;-75
2023/05/21 18:09:35;;;;;;;2.62;1.90;;;;;;;23.90;37.37;101109.24;5066460;56;1138788;-73
2023/05/21 18:14:41;;;;;;;8.98;2.80;;;;;;;23.77;38.46;101114.50;5022441;56;1138966;-72
2023/05/21 18:19:46;;;;;;;6.53;2.37;;;;;;;23.63;39.01;101118.08;5060852;56;1138713;-73
2023/05/21 18:24:52;;;;;;;2.92;2.60;;;;;;;23.51;39.56;101119.09;5040580;56;1138717;-75
2023/05/21 18:30:01;;;;;;;2.97;2.70;;;;;;;23.34;39.59;101125.17;5041591;56;1138797;-74
2023/05/21 18:35:08;;;;;;;17.57;2.90;;;;;;;23.16;40.29;101127.41;5063027;56;1138888;-75
2023/05/21 18:40:16;;;;;;;10.28;2.60;;;;;;;22.98;40.94;101124.23;5055322;56;1140885;-75
2023/05/21 18:45:21;;;;;;;4.72;2.62;;;;;;;22.87;41.37;101126.88;5048684;56;1140945;-76
2023/05/21 18:50:27;;;;;;;5.25;2.27;;;;;;;22.75;41.80;101131.86;5065019;56;1138874;-78
2023/05/21 18:55:34;;;;;;;8.50;3.00;;;;;;;22.61;42.12;101127.25;5036142;56;1138757;-77
2023/05/21 19:00:41;;;;;;;10.75;2.70;;;;;;;22.34;42.57;101127.31;5035522;56;1138928;-78
2023/05/21 19:05:48;;;;;;;13.73;2.90;;;;;;;22.14;43.49;101136.08;5024626;56;1140916;-76
2023/05/21 19:10:54;;;;;;;8.95;2.85;;;;;;;21.99;44.08;101142.72;4920014;58;1140959;-75
2023/05/21 19:16:00;;;;;;;3.15;2.87;;;;;;;21.94;44.53;101143.75;4987958;57;1139087;-76
2023/05/21 19:21:06;;;;;;;8.05;3.42;;;;;;;21.91;44.99;101139.55;4996267;56;1138791;-74
2023/05/21 19:26:13;;;;;;;13.93;2.50;;;;;;;21.72;45.54;101138.64;5050286;57;1138725;-76
2023/05/21 19:31:19;;;;;;;11.60;3.40;;;;;;;21.54;46.03;101136.73;4953997;57;1140837;-77
2023/05/21 19:36:25;;;;;;;5.95;3.30;;;;;;;21.39;46.45;101140.64;4940137;57;1140819;-76
2023/05/21 19:41:31;;;;;;;8.18;3.08;;;;;;;21.28;47.01;101137.83;5010137;56;1138817;-75
2023/05/21 19:46:37;;;;;;;8.63;3.47;;;;;;;21.14;47.33;101143.89;4993796;57;1138869;-75
2023/05/21 19:51:43;;;;;;;17.92;3.58;;;;;;;21.13;47.78;101136.83;4930248;58;1138828;-76
2023/05/21 19:56:49;;;;;;;13.80;3.60;;;;;;;20.93;48.02;101131.53;4780289;59;1140929;-74
2023/05/21 20:01:55;;;;;;;16.15;3.25;;;;;;;20.76;48.56;101124.50;4762485;58;1140895;-77
2023/05/21 20:07:02;;;;;;;17.07;3.30;;;;;;;20.65;49.08;101131.04;4775803;58;1141059;-76
2023/05/21 20:12:08;;;;;;;22.65;4.00;;;;;;;20.68;49.72;101122.64;4836050;59;1140952;-74
2023/05/21 20:17:14;;;;;;;8.10;3.77;;;;;;;20.64;49.91;101128.02;4817187;59;1140949;-75
2023/05/21 20:22:21;;;;;;;22.60;3.75;;;;;;;20.43;49.99;101130.39;4917588;57;1138937;-74
2023/05/21 20:27:27;;;;;;;5.87;3.77;;;;;;;20.29;50.54;101131.87;5007951;58;1140910;-76
2023/05/21 20:32:33;;;;;;;9.68;3.02;;;;;;;20.23;51.05;101129.84;4947511;57;1138810;-75
2023/05/21 20:37:39;;;;;;;6.30;3.05;;;;;;;20.08;51.25;101122.94;4993004;57;1139279;-77
2023/05/21 20:42:47;;;;;;;4.55;3.22;;;;;;;19.92;51.69;101130.47;5044161;57;1138835;-75
2023/05/21 20:47:52;;;;;;;3.95;3.02;;;;;;;19.75;52.32;101126.06;5109419;56;1138782;-77
2023/05/21 20:52:58;;;;;;;5.05;2.77;;;;;;;19.55;53.05;101124.67;5058879;56;1138748;-74
2023/05/21 20:58:04;;;;;;;10.25;3.55;;;;;;;19.43;53.60;101124.07;5074298;56;1138776;-78
2023/05/21 21:03:10;;;;;;;10.72;2.55;;;;;;;19.33;54.23;101131.42;5123684;56;1140731;-77
2023/05/21 21:08:16;;;;;;;4.62;3.25;;;;;;;19.22;54.76;101136.57;5115017;56;1141301;-76
2023/05/21 21:13:21;;;;;;;5.22;3.22;;;;;;;19.07;55.10;101134.14;5115276;56;1138682;-77
2023/05/21 21:18:27;;;;;;;8.80;3.30;;;;;;;19.00;55.27;101141.13;5135434;56;1139046;-73
2023/05/21 21:23:33;;;;;;;10.32;3.65;;;;;;;18.97;55.82;101132.89;5115346;56;1138945;-76
2023/05/21 21:28:38;;;;;;;8.23;3.67;;;;;;;19.03;56.39;101131.43;5114787;56;1141089;-75
2023/05/21 21:33:44;;;;;;;5.03;3.33;;;;;;;19.17;56.90;101124.13;5115514;56;1138843;-75
2023/05/21 21:38:49;;;;;;;4.15;3.12;;;;;;;19.26;57.24;101125.84;5135422;56;1139036;-76
2023/05/21 21:43:55;;;;;;;15.80;4.00;;;;;;;19.33;57.25;101128.73;5115154;56;1138879;-75
2023/05/21 21:49:01;;;;;;;10.35;3.83;;;;;;;19.20;56.98;101130.52;5114920;56;1141029;-77
2023/05/21 21:54:06;;;;;;;22.13;4.90;;;;;;;19.11;57.70;101129.28;5135008;56;1140847;-75
2023/05/21 21:59:12;;;;;;;19.70;5.53;;;;;;;19.08;57.95;101123.77;5114677;56;1140885;-74
2023/05/21 22:04:17;;;;;;;12.20;4.65;;;;;;;19.08;58.30;101125.10;5114574;56;1141023;-74
2023/05/21 22:09:23;;;;;;;5.92;3.90;;;;;;;19.05;58.52;101122.73;5134627;56;1141245;-74
2023/05/21 22:14:29;;;;;;;5.85;3.72;;;;;;;18.93;58.49;101122.67;5125134;56;1138765;-73
2023/05/21 22:19:34;;;;;;;8.10;3.83;;;;;;;18.87;58.95;101121.95;5126352;56;1138662;-76
2023/05/21 22:24:40;;;;;;;7.03;3.72;;;;;;;18.82;59.18;101125.59;5126315;56;1138744;-77
2023/05/21 22:29:45;;;;;;;6.80;3.80;;;;;;;18.77;59.27;101120.72;5100522;56;1138855;-77
2023/05/21 22:34:51;;;;;;;7.75;3.60;;;;;;;18.57;59.21;101125.40;5022904;56;1138867;-75
2023/05/21 22:39:57;;;;;;;8.95;4.92;;;;;;;18.21;59.51;101126.42;5042318;56;1138839;-75
2023/05/21 22:45:03;;;;;;;10.57;6.13;;;;;;;17.92;60.43;101128.83;5061716;56;1138784;-76
2023/05/21 22:50:10;;;;;;;22.77;7.90;;;;;;;17.93;61.41;101128.33;5041757;56;1143717;-75
2023/05/21 22:55:16;;;;;;;13.22;7.87;;;;;;;17.97;61.67;101123.52;5041054;57;1140830;-75
2023/05/21 23:00:22;;;;;;;17.03;7.50;;;;;;;18.03;62.20;101118.87;5061027;56;1140837;-77